createdAt,value
2023-05-15T03:46:04.310Z,13.50
2023-05-15T03:48:31.303Z,13.50
2023-05-15T03:50:58.703Z,13.50
2023-05-15T03:53:25.716Z,13.40
2023-05-15T03:55:52.619Z,13.40
2023-05-15T03:58:19.497Z,13.40
2023-05-15T04:00:46.412Z,13.30
2023-05-15T04:03:13.446Z,13.30
2023-05-15T04:05:40.547Z,13.30
2023-05-15T04:08:09.664Z,13.30
2023-05-15T04:10:36.579Z,13.40
2023-05-15T04:13:03.520Z,13.40
2023-05-15T04:15:30.486Z,13.50
2023-05-15T04:17:57.552Z,13.50
2023-05-15T04:20:24.757Z,13.50
2023-05-15T04:22:52.483Z,13.60
2023-05-15T04:25:20.229Z,13.60
2023-05-15T04:27:47.363Z,13.60
2023-05-15T04:30:14.444Z,13.60
2023-05-15T04:32:41.569Z,13.50
2023-05-15T04:35:10.432Z,13.50
2023-05-15T04:37:38.096Z,13.50
2023-05-15T04:40:06.717Z,13.50
2023-05-15T04:42:33.841Z,13.50
2023-05-15T04:45:00.798Z,13.50
2023-05-15T04:47:27.775Z,13.40
2023-05-15T04:49:54.696Z,13.50
2023-05-15T04:52:21.744Z,13.50
2023-05-15T04:54:50.989Z,13.50
2023-05-15T04:57:18.005Z,13.60
2023-05-15T04:59:45.108Z,13.60
2023-05-15T05:02:12.372Z,13.80
2023-05-15T05:04:42.178Z,13.70
2023-05-15T05:07:09.118Z,13.70
2023-05-15T05:09:36.057Z,13.70
2023-05-15T05:12:03.372Z,13.80
2023-05-15T05:14:31.491Z,13.70
2023-05-15T05:16:58.468Z,13.70
2023-05-15T05:19:26.080Z,13.70
2023-05-15T05:21:52.993Z,13.70
2023-05-15T05:24:19.898Z,13.90
2023-05-15T05:26:47.798Z,13.80
2023-05-15T05:29:14.772Z,13.90
2023-05-15T05:31:41.703Z,13.90
2023-05-15T05:34:09.218Z,14.00
2023-05-15T05:36:36.975Z,13.90
2023-05-15T05:39:04.728Z,13.90
2023-05-15T05:41:31.662Z,13.90
2023-05-15T05:43:58.610Z,13.90
2023-05-15T05:46:27.212Z,14.00
2023-05-15T05:48:54.236Z,14.00
2023-05-15T05:51:21.187Z,14.00
2023-05-15T05:53:48.150Z,14.10
2023-05-15T05:56:15.081Z,14.00
2023-05-15T05:58:42.078Z,14.00
2023-05-15T06:01:09.089Z,14.00
2023-05-15T06:03:36.546Z,14.10
2023-05-15T06:06:03.825Z,14.10
2023-05-15T06:08:31.473Z,14.10
2023-05-15T06:10:58.502Z,14.10
2023-05-15T06:13:25.529Z,14.00
2023-05-15T06:15:52.607Z,14.10
2023-05-15T06:18:19.518Z,14.00
2023-05-15T06:20:46.838Z,14.00
2023-05-15T06:23:13.744Z,14.00
2023-05-15T06:25:40.731Z,13.90
2023-05-15T06:28:07.881Z,13.90
2023-05-15T06:30:34.907Z,13.90
2023-05-15T06:33:01.920Z,14.00
2023-05-15T06:35:28.881Z,14.00
2023-05-15T06:37:57.766Z,14.00
2023-05-15T06:40:25.779Z,14.00
2023-05-15T06:42:52.907Z,14.00
2023-05-15T06:45:19.877Z,14.10
2023-05-15T06:47:46.863Z,14.10
2023-05-15T06:50:13.872Z,14.30
2023-05-15T06:52:40.786Z,14.10
2023-05-15T06:55:07.912Z,14.10
2023-05-15T06:57:34.954Z,14.20
2023-05-15T07:00:01.883Z,14.20
2023-05-15T07:02:28.814Z,14.20
2023-05-15T07:04:56.219Z,14.30
2023-05-15T07:07:23.161Z,14.30
2023-05-15T07:09:50.370Z,14.30
2023-05-15T07:12:17.276Z,14.40
2023-05-15T07:14:44.300Z,14.40
2023-05-15T07:17:11.249Z,14.50
2023-05-15T07:19:38.224Z,14.50
2023-05-15T07:22:05.350Z,14.60
2023-05-15T07:24:32.295Z,14.60
2023-05-15T07:26:59.414Z,14.60
2023-05-15T07:29:26.517Z,14.60
2023-05-15T07:31:53.668Z,14.80
2023-05-15T07:34:20.786Z,14.70
2023-05-15T07:36:47.778Z,14.70
2023-05-15T07:39:14.769Z,14.70
2023-05-15T07:41:41.666Z,14.80
2023-05-15T07:44:08.629Z,14.80
2023-05-15T07:46:35.677Z,14.90
2023-05-15T07:49:02.706Z,14.80
2023-05-15T07:51:29.679Z,14.80
2023-05-15T07:53:56.622Z,15.00
2023-05-15T07:56:23.649Z,14.90
2023-05-15T07:58:50.715Z,15.00
2023-05-15T08:01:18.053Z,15.00
2023-05-15T08:03:45.526Z,15.00
2023-05-15T08:06:12.567Z,15.00
2023-05-15T08:08:39.504Z,15.00
2023-05-15T08:11:06.399Z,15.00
2023-05-15T08:13:33.329Z,15.00
2023-05-15T08:16:00.414Z,15.00
2023-05-15T08:18:27.491Z,14.90
2023-05-15T08:20:54.509Z,15.00
2023-05-15T08:23:21.481Z,15.10
2023-05-15T08:25:48.411Z,15.20
2023-05-15T08:28:15.352Z,15.00
2023-05-15T08:30:42.364Z,15.10
2023-05-15T08:33:09.372Z,15.10
2023-05-15T08:35:36.373Z,15.20
2023-05-15T08:38:03.364Z,15.20
2023-05-15T08:40:39.184Z,15.20
2023-05-15T08:43:13.790Z,15.20
2023-05-15T08:45:41.429Z,15.30
2023-05-15T08:48:13.029Z,15.20
2023-05-15T08:50:40.834Z,15.30
2023-05-15T08:53:07.924Z,15.40
2023-05-15T08:55:35.120Z,15.40
2023-05-15T08:58:02.540Z,15.40
2023-05-15T09:00:30.003Z,15.50
2023-05-15T09:02:59.418Z,15.50
2023-05-15T09:05:26.811Z,15.50
2023-05-15T09:07:54.985Z,15.60
2023-05-15T09:10:22.166Z,15.60
2023-05-15T09:12:50.996Z,15.60
2023-05-15T09:15:21.760Z,15.60
2023-05-15T09:17:48.735Z,15.70
2023-05-15T09:20:26.051Z,15.80
2023-05-15T09:22:53.160Z,15.80
2023-05-15T09:25:33.399Z,15.90
2023-05-15T09:28:01.041Z,15.90
2023-05-15T09:30:28.005Z,15.90
2023-05-15T09:32:56.055Z,15.90
2023-05-15T09:35:32.926Z,15.90
2023-05-15T09:38:00.347Z,16.00
2023-05-15T09:40:31.086Z,16.10
2023-05-15T09:42:58.409Z,16.10
2023-05-15T09:45:26.947Z,16.10
2023-05-15T09:47:54.313Z,16.20
2023-05-15T09:50:22.915Z,16.20
2023-05-15T09:52:50.791Z,16.30
2023-05-15T09:55:19.837Z,16.30
2023-05-15T09:58:06.395Z,16.40
2023-05-15T10:00:34.223Z,16.50
2023-05-15T10:03:02.342Z,16.50
2023-05-15T10:05:42.551Z,16.60
2023-05-15T10:08:10.877Z,16.60
2023-05-15T10:10:37.776Z,16.70
2023-05-15T10:13:06.381Z,16.70
2023-05-15T10:15:33.473Z,16.70
2023-05-15T10:18:01.235Z,16.60
2023-05-15T10:20:28.320Z,16.60
2023-05-15T10:22:56.208Z,16.60
2023-05-15T10:25:23.129Z,16.70
2023-05-15T10:27:51.180Z,16.80
2023-05-15T10:30:19.413Z,16.80
2023-05-15T10:32:46.589Z,16.90
2023-05-15T10:35:13.669Z,16.90
2023-05-15T10:37:40.834Z,17.00
2023-05-15T10:40:11.363Z,17.10
2023-05-15T10:42:38.974Z,17.10
2023-05-15T10:45:07.438Z,17.20
2023-05-15T10:47:34.830Z,17.20
2023-05-15T10:50:02.133Z,17.40
2023-05-15T10:52:29.090Z,17.30
2023-05-15T10:54:56.908Z,17.40
2023-05-15T10:57:23.889Z,17.50
2023-05-15T10:59:51.058Z,17.50
2023-05-15T11:02:25.693Z,17.60
2023-05-15T11:04:55.907Z,17.60
2023-05-15T11:07:24.170Z,17.60
2023-05-15T11:09:51.667Z,17.60
2023-05-15T11:12:19.181Z,17.60
2023-05-15T11:14:46.153Z,17.70
2023-05-15T11:17:15.304Z,17.70
2023-05-15T11:19:51.683Z,17.70
2023-05-15T11:22:22.645Z,17.60
2023-05-15T11:24:51.172Z,17.60
2023-05-15T11:27:19.462Z,17.60
2023-05-15T11:30:06.961Z,17.70
2023-05-15T11:32:52.669Z,17.70
2023-05-15T11:35:22.448Z,17.60
2023-05-15T11:37:50.565Z,17.60
2023-05-15T11:40:23.579Z,17.60
2023-05-15T11:43:29.029Z,17.70
2023-05-15T11:45:58.929Z,17.60
2023-05-15T11:48:31.800Z,17.60
2023-05-15T11:51:00.637Z,17.60
2023-05-15T11:53:28.513Z,17.60
2023-05-15T11:55:55.424Z,17.60
2023-05-15T11:58:23.105Z,17.50
2023-05-15T12:00:51.555Z,17.40
2023-05-15T12:03:23.882Z,17.30
2023-05-15T12:05:58.880Z,17.20
2023-05-15T12:08:31.245Z,17.20
2023-05-15T12:10:58.793Z,17.10
2023-05-15T12:13:25.699Z,17.10
2023-05-15T12:15:54.150Z,17.00
2023-05-15T12:18:21.121Z,17.10
2023-05-15T12:20:49.646Z,17.00
2023-05-15T12:23:17.172Z,17.00
2023-05-15T12:25:46.425Z,17.00
2023-05-15T12:28:13.594Z,17.00
2023-05-15T12:30:42.106Z,17.00
2023-05-15T12:33:09.749Z,17.00
2023-05-15T12:35:37.364Z,17.10
2023-05-15T12:38:04.985Z,17.10
2023-05-15T12:40:35.308Z,17.00
2023-05-15T12:43:06.473Z,17.00
2023-05-15T12:45:35.173Z,17.00
2023-05-15T12:48:02.408Z,17.00
2023-05-15T12:50:31.892Z,17.00
2023-05-15T12:53:03.031Z,17.10
2023-05-15T12:55:33.021Z,17.10
2023-05-15T12:58:02.237Z,17.10
2023-05-15T13:00:29.677Z,17.20
2023-05-15T13:02:57.325Z,17.20
2023-05-15T13:05:24.755Z,17.30
2023-05-15T13:07:54.404Z,17.20
2023-05-15T13:10:25.266Z,17.30
2023-05-15T13:12:53.008Z,17.30
2023-05-15T13:15:28.862Z,17.30
2023-05-15T13:17:59.545Z,17.30
2023-05-15T13:20:27.808Z,17.30
2023-05-15T13:22:54.982Z,17.40
2023-05-15T13:25:22.077Z,17.40
2023-05-15T13:27:49.084Z,17.40
2023-05-15T13:30:16.742Z,17.50
2023-05-15T13:32:44.010Z,17.50
2023-05-15T13:35:11.142Z,17.50
2023-05-15T13:37:38.296Z,17.50
2023-05-15T13:40:09.745Z,17.50
2023-05-15T13:42:37.264Z,17.50
2023-05-15T13:45:22.225Z,17.50
2023-05-15T13:47:50.265Z,17.50
2023-05-15T13:50:17.425Z,17.60
2023-05-15T13:52:44.841Z,17.60
2023-05-15T13:55:11.943Z,17.60
2023-05-15T13:57:39.560Z,17.60
2023-05-15T14:00:07.668Z,17.70
2023-05-15T14:02:34.706Z,17.70
2023-05-15T14:05:01.665Z,17.80
2023-05-15T14:07:28.626Z,17.90
2023-05-15T14:09:55.609Z,17.90
2023-05-15T14:12:22.532Z,17.90
2023-05-15T14:14:50.194Z,17.90
2023-05-15T14:17:18.244Z,17.80
2023-05-15T14:19:45.318Z,17.80
2023-05-15T14:22:12.298Z,17.80
2023-05-15T14:24:39.193Z,17.80
2023-05-15T14:27:06.192Z,17.80
2023-05-15T14:29:33.219Z,17.90
2023-05-15T14:32:00.273Z,17.90
2023-05-15T14:34:27.258Z,17.90
2023-05-15T14:36:54.184Z,17.90
2023-05-15T14:39:21.108Z,17.90
2023-05-15T14:41:48.540Z,17.90
2023-05-15T14:44:15.430Z,18.00
2023-05-15T14:46:42.771Z,18.00
2023-05-15T14:49:09.747Z,18.00
2023-05-15T14:51:36.794Z,18.00
2023-05-15T14:54:04.978Z,17.90
2023-05-15T14:56:32.044Z,17.90
2023-05-15T14:58:59.001Z,18.00
2023-05-15T15:01:26.064Z,18.00
2023-05-15T15:03:53.148Z,18.00
2023-05-15T15:06:20.215Z,18.00
2023-05-15T15:08:47.149Z,18.10
2023-05-15T15:11:14.065Z,17.90
2023-05-15T15:13:40.976Z,18.00
2023-05-15T15:16:08.320Z,18.00
2023-05-15T15:18:35.458Z,18.00
2023-05-15T15:21:02.379Z,18.00
2023-05-15T15:23:29.345Z,18.00
2023-05-15T15:25:56.269Z,17.90
2023-05-15T15:28:23.348Z,17.80
2023-05-15T15:30:50.376Z,17.60
2023-05-15T15:33:17.754Z,17.50
2023-05-15T15:35:44.697Z,17.60
2023-05-15T15:38:13.206Z,17.60
2023-05-15T15:40:40.611Z,17.60
2023-05-15T15:43:07.559Z,17.60
2023-05-15T15:45:34.603Z,17.40
2023-05-15T15:48:01.608Z,17.40
2023-05-15T15:50:28.605Z,17.40
2023-05-15T15:52:55.503Z,17.40
2023-05-15T15:55:22.450Z,17.40
2023-05-15T15:57:49.386Z,17.40
2023-05-15T16:00:16.693Z,17.40
2023-05-15T16:02:43.752Z,17.30
2023-05-15T16:05:10.793Z,17.20
2023-05-15T16:07:37.690Z,17.00
2023-05-15T16:10:12.404Z,16.80
2023-05-15T16:12:44.939Z,16.50
2023-05-15T16:17:42.012Z,16.10
2023-05-15T16:20:09.872Z,16.10
2023-05-15T16:22:37.376Z,16.10
2023-05-15T16:25:04.662Z,16.10
2023-05-15T16:27:31.654Z,16.20
2023-05-15T16:29:58.680Z,16.20
2023-05-15T16:32:27.445Z,16.20
2023-05-15T16:34:54.472Z,16.20
2023-05-15T16:37:21.425Z,16.20
2023-05-15T16:39:48.335Z,16.30
2023-05-15T16:42:15.220Z,16.30
2023-05-15T16:44:42.099Z,16.30
2023-05-15T16:47:09.656Z,16.40
2023-05-15T16:49:36.541Z,16.40
2023-05-15T16:52:03.493Z,16.50
2023-05-15T16:54:31.218Z,16.50
2023-05-15T16:56:58.146Z,16.50
2023-05-15T16:59:25.176Z,16.50
2023-05-15T17:01:52.739Z,16.50
2023-05-15T17:04:19.783Z,16.50
2023-05-15T17:06:46.740Z,16.50
2023-05-15T17:09:14.025Z,16.50
2023-05-15T17:11:40.937Z,16.40
2023-05-15T17:14:07.873Z,16.30
2023-05-15T17:16:34.895Z,16.30
2023-05-15T17:19:01.843Z,16.30
2023-05-15T17:21:28.859Z,16.30
2023-05-15T17:23:56.262Z,16.50
2023-05-15T17:26:23.672Z,16.40
2023-05-15T17:28:50.703Z,16.40
2023-05-15T17:31:17.684Z,16.50
2023-05-15T17:33:45.348Z,16.50
2023-05-15T17:36:13.488Z,16.50
2023-05-15T17:38:40.428Z,16.40
2023-05-15T17:41:07.692Z,16.40
2023-05-15T17:43:34.640Z,16.40
2023-05-15T17:46:01.593Z,16.40
2023-05-15T17:48:28.516Z,16.40
2023-05-15T17:50:55.681Z,16.30
2023-05-15T17:53:24.445Z,16.30
2023-05-15T17:55:51.664Z,16.30
2023-05-15T17:58:18.755Z,16.30
2023-05-15T18:00:45.975Z,16.20
2023-05-15T18:03:13.028Z,16.20
2023-05-15T18:05:40.043Z,16.40
2023-05-15T18:08:07.014Z,16.50
2023-05-15T18:10:33.986Z,16.30
2023-05-15T18:13:00.938Z,16.30
2023-05-15T18:15:28.204Z,16.30
2023-05-15T18:17:55.482Z,16.30
2023-05-15T18:20:22.531Z,16.30
2023-05-15T18:22:50.675Z,16.30
2023-05-15T18:25:17.867Z,16.30
2023-05-15T18:27:44.810Z,16.30
2023-05-15T18:30:12.295Z,16.30
2023-05-15T18:32:39.364Z,16.30
2023-05-15T18:35:06.683Z,16.20
2023-05-15T18:37:33.600Z,16.20
2023-05-15T18:40:00.498Z,16.20
2023-05-15T18:42:27.811Z,16.20
2023-05-15T18:44:54.753Z,16.20
2023-05-15T18:47:21.749Z,16.20
2023-05-15T18:49:48.691Z,16.20
2023-05-15T18:52:15.677Z,16.10
2023-05-15T18:54:42.568Z,16.10
2023-05-15T18:57:09.620Z,16.10
2023-05-15T18:59:36.506Z,16.10
2023-05-15T19:02:03.558Z,16.10
2023-05-15T19:04:30.516Z,16.20
2023-05-15T19:06:57.461Z,16.20
2023-05-15T19:09:24.347Z,16.20
2023-05-15T19:11:52.290Z,16.20
2023-05-15T19:14:19.390Z,16.20
2023-05-15T19:16:46.431Z,16.20
2023-05-15T19:19:13.669Z,16.20
2023-05-15T19:21:40.761Z,16.20
2023-05-15T19:24:07.928Z,16.20
2023-05-15T19:26:34.859Z,16.20
2023-05-15T19:29:01.757Z,16.10
2023-05-15T19:31:31.863Z,16.10
2023-05-15T19:33:59.747Z,16.10
2023-05-15T19:36:26.890Z,16.10
2023-05-15T19:38:53.934Z,16.10
2023-05-15T19:41:22.226Z,16.10
2023-05-15T19:43:50.755Z,16.10
2023-05-15T19:46:18.070Z,16.00
2023-05-15T19:48:45.326Z,16.00
2023-05-15T19:51:12.292Z,16.00
2023-05-15T19:53:39.289Z,16.00
2023-05-15T19:56:06.395Z,16.00
2023-05-15T19:58:33.462Z,16.00
2023-05-15T20:01:00.468Z,16.00
2023-05-15T20:03:32.709Z,16.00
2023-05-15T20:06:01.223Z,16.00
2023-05-15T20:08:28.830Z,16.00
2023-05-15T20:10:55.861Z,16.00
2023-05-15T20:13:23.003Z,16.00
2023-05-15T20:15:54.639Z,15.90
2023-05-15T20:18:21.897Z,15.90
2023-05-15T20:20:49.704Z,15.80
2023-05-15T20:23:16.633Z,15.80
2023-05-15T20:25:43.652Z,15.80
2023-05-15T20:28:10.778Z,15.80
2023-05-15T20:30:37.787Z,15.80
2023-05-15T20:33:04.803Z,15.80
2023-05-15T20:35:32.112Z,15.80
2023-05-15T20:37:59.045Z,15.70
2023-05-15T20:40:26.411Z,15.70
2023-05-15T20:42:53.459Z,15.60
2023-05-15T20:45:20.754Z,15.60
2023-05-15T20:47:48.418Z,15.50
2023-05-15T20:50:16.303Z,15.50
2023-05-15T20:52:43.244Z,15.60
2023-05-15T20:55:19.522Z,15.50
2023-05-15T20:57:46.931Z,15.50
2023-05-15T21:00:15.643Z,15.50
2023-05-15T21:02:43.043Z,15.50
2023-05-15T21:05:10.515Z,15.50
2023-05-15T21:07:37.470Z,15.60
2023-05-15T21:10:04.756Z,15.60
2023-05-15T21:12:32.739Z,15.50
2023-05-15T21:15:01.301Z,15.50
2023-05-15T21:17:28.535Z,15.50
2023-05-15T21:19:57.477Z,15.50
2023-05-15T21:22:24.668Z,15.50
2023-05-15T21:24:51.809Z,15.50
2023-05-15T21:27:18.839Z,15.50
2023-05-15T21:29:45.888Z,15.40
2023-05-15T21:32:12.794Z,15.40
2023-05-15T21:34:39.687Z,15.40
2023-05-15T21:37:06.762Z,15.40
2023-05-15T21:39:33.696Z,15.40
2023-05-15T21:42:00.604Z,15.40
2023-05-15T21:44:27.775Z,15.40
2023-05-15T21:46:55.000Z,15.30
2023-05-15T21:49:22.012Z,15.30
2023-05-15T21:51:48.994Z,15.40
2023-05-15T21:54:16.003Z,15.30
2023-05-15T21:56:42.975Z,15.30
2023-05-15T21:59:11.286Z,15.30
2023-05-15T22:01:38.232Z,15.20
2023-05-15T22:04:05.309Z,15.20
2023-05-15T22:06:32.412Z,15.10
2023-05-15T22:08:59.451Z,15.10
2023-05-15T22:11:26.491Z,15.00
2023-05-15T22:13:53.424Z,15.20
2023-05-15T22:16:20.621Z,15.30
2023-05-15T22:18:48.651Z,15.10
2023-05-15T22:21:16.015Z,15.10
2023-05-15T22:23:43.032Z,15.10
2023-05-15T22:26:09.995Z,15.00
2023-05-15T22:28:36.965Z,15.00
2023-05-15T22:31:04.434Z,15.00
2023-05-15T22:33:31.386Z,15.00
2023-05-15T22:35:58.639Z,15.00
2023-05-15T22:38:25.674Z,15.00
2023-05-15T22:40:52.903Z,15.10
2023-05-15T22:43:19.949Z,15.00
2023-05-15T22:45:46.915Z,15.20
2023-05-15T22:48:15.150Z,15.00
2023-05-15T22:50:43.576Z,15.00
2023-05-15T22:53:10.584Z,15.00
2023-05-15T22:55:37.506Z,15.00
2023-05-15T22:58:04.407Z,15.10
